• Join FlightAware (Why Join?)
  • Login
  • US Flag 
02:02AM EDT


 

Airport Tracker/Info


-or-


 

Live Flight TrackerFlight Track Log ✈ N567GJ ✈ 19-Jun-2013 ✈ KHOT - 05C

Flight Track Log - Related Links

Times and Time Zones

All times are in EDT time to prevent confusion due to time zone crossing. See the N567GJ flight status page for this flight to view local times or setup timezone preferences in your user account.

Time Position Orientation Groundspeed Altitude Reporting Facility
EDT Latitude Longitude Course Direction KTS MPH feet Rate Location/Type
01:34PM 34.5958 -92.9886 29° Northeast 193 222 5,700  Level Memphis Center
01:35PM 34.6317 -92.9644 29° Northeast 164 189 7,000 1,200 Climbing Memphis Center
01:36PM 34.6678 -92.9378 31° Northeast 148 170 8,100 1,140 Climbing Memphis Center
01:37PM 34.7039 -92.9061 36° Northeast 148 170 9,300 1,140 Climbing Memphis Center
01:38PM 34.7419 -92.8844 25° Northeast 148 170 10,400 1,140 Climbing Memphis Center
01:39PM 34.7822 -92.8578 29° Northeast 153 176 11,600 1,020 Climbing Memphis Center
01:40PM 34.8203 -92.8286 32° Northeast 153 176 12,500 840 Climbing Memphis Center
01:41PM 34.8564 -92.7967 36° Northeast 158 182 13,400 900 Climbing Memphis Center
01:42PM 34.9006 -92.7753 22° Northeast 158 182 14,300 840 Climbing Memphis Center
01:43PM 34.9428 -92.7461 30° Northeast 158 182 15,100 780 Climbing Memphis Center
01:44PM 34.9831 -92.7167 31° Northeast 163 188 15,900 780 Climbing Memphis Center
01:45PM 35.0211 -92.6822 37° Northeast 163 188 16,700 660 Climbing Memphis Center
01:46PM 35.0636 -92.6531 29° Northeast 168 193 17,300 540 Climbing Memphis Center
01:47PM 35.1078 -92.6211 31° Northeast 168 193 17,900 600 Climbing Memphis Center
01:48PM 35.1481 -92.5919 31° Northeast 168 193 18,600 600 Climbing Memphis Center
01:49PM 35.1925 -92.5600 30° Northeast 168 193 19,100 480 Climbing Memphis Center
01:50PM 35.2369 -92.5256 32° Northeast 168 193 19,600 540 Climbing Memphis Center
01:51PM 35.2833 -92.4911 31° Northeast 181 208 20,200 600 Climbing Memphis Center
01:52PM 35.3256 -92.4567 34° Northeast 181 208 20,800 420 Climbing Memphis Center
01:53PM 35.3700 -92.4247 30° Northeast 181 208 21,100 120 Climbing Memphis Center
01:54PM 35.4164 -92.3900 31° Northeast 186 214 21,100  Level Memphis Center
01:55PM 35.4692 -92.3531 30° Northeast 198 228 21,100  Level Memphis Center
01:56PM 35.5239 -92.3136 30° Northeast 209 241 21,100 -60 Level Memphis Center
01:57PM 35.5789 -92.2717 32° Northeast 214 246 21,000 -60 Descending Memphis Center
01:58PM 35.6317 -92.2344 30° Northeast 214 246 21,000  Level Memphis Center
01:59PM 35.6886 -92.1922 31° Northeast 220 253 21,000  Level Memphis Center
02:00PM 35.7414 -92.1500 33° Northeast 226 260 21,000  Level Memphis Center
02:01PM 35.7961 -92.1103 30° Northeast 226 260 21,000  Level Memphis Center
02:02PM 35.8508 -92.0703 31° Northeast 226 260 21,000  Level Memphis Center
02:03PM 35.9078 -92.0281 31° Northeast 231 266 21,000  Level Memphis Center
02:04PM 35.9542 -91.9906 33° Northeast 231 266 21,000  Level Memphis Center
02:05PM 36.0131 -91.9481 30° Northeast 231 266 21,000  Level Memphis Center
02:06PM 36.0636 -91.9053 34° Northeast 231 266 21,000  Level Memphis Center
02:07PM 36.1203 -91.8653 30° Northeast 231 266 21,000  Level Memphis Center
02:08PM 36.1750 -91.8250 31° Northeast 231 266 21,000  Level Memphis Center
02:09PM 36.2339 -91.7800 32° Northeast 231 266 21,000  Level Memphis Center
02:10PM 36.2803 -91.7419 33° Northeast 225 259 21,000  Level Memphis Center
02:11PM 36.3350 -91.7017 31° Northeast 220 253 21,000  Level Memphis Center
02:12PM 36.3917 -91.6589 31° Northeast 220 253 21,000  Level Memphis Center
02:13PM 36.4461 -91.6183 31° Northeast 226 260 21,000  Level Memphis Center
02:14PM 36.5092 -91.5731 30° Northeast 239 275 21,000  Level Memphis Center
02:15PM 36.5639 -91.5297 32° Northeast 232 267 21,000  Level Memphis Center
02:16PM 36.6183 -91.4867 32° Northeast 232 267 21,000  Level Memphis Center
02:17PM 36.6750 -91.4461 30° Northeast 232 267 21,000  Level Memphis Center
02:18PM 36.7275 -91.4028 33° Northeast 232 267 21,000  Level Memphis Center
02:19PM 36.7842 -91.3619 30° Northeast 232 267 21,000  Level Memphis Center
02:20PM 36.8497 -91.3081 33° Northeast 231 266 21,000  Level Kansas City Center
02:21PM 36.9033 -91.2656 32° Northeast 228 262 21,000  Level Kansas City Center
02:22PM 36.9139 -91.2575 32° Northeast  Level FlightAware Approximate
02:22PM 36.9592 -91.2233 31° Northeast 232 267 21,000  Level Kansas City Center
02:23PM 37.0128 -91.1806 32° Northeast 231 266 21,000  Level Kansas City Center
02:24PM 37.0678 -91.1383 31° Northeast 231 266 21,000  Level Kansas City Center
02:25PM 37.1228 -91.0956 32° Northeast 232 267 21,000  Level Kansas City Center
02:26PM 37.1881 -91.0461 31° Northeast 230 265 21,000  Level Kansas City Center
02:27PM 37.2414 -91.0025 33° Northeast 228 262 21,000  Level Kansas City Center
02:28PM 37.2956 -90.9600 32° Northeast 229 264 21,000  Level Kansas City Center
02:30PM 37.3489 -90.9197 31° Northeast 227 261 21,000  Level Kansas City Center
02:31PM 37.4039 -90.8772 32° Northeast 228 262 21,000  Level Kansas City Center
02:32PM 37.4583 -90.8344 32° Northeast 229 264 21,000  Level Kansas City Center
02:33PM 37.5222 -90.7833 32° Northeast 229 264 21,000  Level Kansas City Center
02:34PM 37.5750 -90.7428 31° Northeast 228 262 21,000  Level Kansas City Center
02:35PM 37.6281 -90.6964 35° Northeast 230 265 21,000  Level Kansas City Center
02:36PM 37.6831 -90.6558 30° Northeast 230 265 21,000  Level Kansas City Center
02:37PM 37.7364 -90.6128 33° Northeast 229 264 21,000  Level Kansas City Center
02:38PM 37.7919 -90.5717 30° Northeast 230 265 21,000  Level Kansas City Center
02:39PM 37.8464 -90.5286 32° Northeast 232 267 21,000  Level Kansas City Center
02:40PM 37.9108 -90.4756 33° Northeast 231 266 21,000  Level Kansas City Center
02:41PM 37.9653 -90.4319 32° Northeast 231 266 21,000  Level Kansas City Center
02:42PM 38.0192 -90.3886 32° Northeast 232 267 21,000  Level Kansas City Center
02:43PM 38.0728 -90.3419 34° Northeast 234 269 21,000  Level Kansas City Center
02:44PM 38.1281 -90.2994 31° Northeast 232 267 21,000  Level Kansas City Center
02:45PM 38.1931 -90.2492 31° Northeast 230 265 21,000  Level Kansas City Center
02:46PM 38.2478 -90.2044 33° Northeast 234 269 21,000  Level Kansas City Center
02:47PM 38.3019 -90.1603 33° Northeast 234 269 21,000  Level Kansas City Center
02:48PM 38.3556 -90.1161 33° Northeast 232 267 21,000  Level Kansas City Center
02:49PM 38.4106 -90.0717 32° Northeast 234 269 21,000  Level Kansas City Center
02:50PM 38.4647 -90.0272 33° Northeast 234 269 21,000  Level Kansas City Center
02:51PM 38.5292 -89.9744 33° Northeast 231 266 21,000  Level Kansas City Center
02:52PM 38.5831 -89.9306 32° Northeast 231 266 21,000  Level Kansas City Center
02:53PM 38.6375 -89.8861 33° Northeast 233 268 21,000  Level Kansas City Center
02:54PM 38.6933 -89.8417 32° Northeast 237 273 21,000  Level Kansas City Center
02:55PM 38.7472 -89.7961 33° Northeast 234 269 21,000  Level Kansas City Center
02:56PM 38.8133 -89.7417 33° Northeast 235 270 21,000  Level Kansas City Center
02:57PM 38.8681 -89.6972 32° Northeast 234 269 21,000  Level Kansas City Center
02:58PM 38.9278 -89.6467 33° Northeast 232 267 21,000  Level Kansas City Center
03:00PM 38.9833 -89.6008 33° Northeast 237 273 21,000  Level Kansas City Center
03:01PM 39.0428 -89.5517 33° Northeast 237 273 21,000  Level Kansas City Center
03:02PM 39.0978 -89.5039 34° Northeast 239 275 21,000  Level Kansas City Center
03:03PM 39.1581 -89.4553 32° Northeast 238 274 21,000  Level Kansas City Center
03:04PM 39.2114 -89.4131 32° Northeast 243 280 21,000  Level Kansas City Center
03:05PM 39.2664 -89.3653 34° Northeast 240 276 21,000 -180 Level Kansas City Center
03:06PM 39.3228 -89.3194 32° Northeast 239 275 20,700 -360 Descending Kansas City Center
03:07PM 39.3825 -89.2686 33° Northeast 252 290 20,300 -360 Descending Kansas City Center
03:08PM 39.4528 -89.2106 33° Northeast 254 292 20,000 -540 Descending Kansas City Center
03:09PM 39.5128 -89.1592 33° Northeast 257 296 19,200 -720 Descending Kansas City Center
03:10PM 39.5750 -89.1092 32° Northeast 262 302 18,600 -540 Descending Kansas City Center
03:11PM 39.6347 -89.0575 34° Northeast 260 299 18,100 -300 Descending Kansas City Center
03:12PM 39.6925 -89.0089 33° Northeast 252 290 18,100 -60 Level Kansas City Center
03:13PM 39.7592 -88.9503 34° Northeast 243 280 18,000  Descending Kansas City Center
03:14PM 39.8125 -88.9042 34° Northeast 236 272 18,100  Climbing Kansas City Center
03:15PM 39.8686 -88.8581 32° Northeast 237 273 18,100  Level Kansas City Center
03:16PM 39.9233 -88.8097 34° Northeast 237 273 18,100  Level Kansas City Center
03:17PM 39.9772 -88.7647 33° Northeast 234 269 18,100 -120 Level Kansas City Center
03:18PM 40.0328 -88.7181 33° Northeast 235 270 17,900 -600 Descending Kansas City Center
03:19PM 40.1036 -88.6564 34° Northeast 249 287 16,900 -900 Descending Kansas City Center
03:20PM 40.1633 -88.6067 32° Northeast 254 292 16,100 -960 Descending Kansas City Center
03:21PM 40.2189 -88.5564 35° Northeast 248 285 15,000 -1,020 Descending Kansas City Center
03:22PM 40.2744 -88.5061 35° Northeast 243 280 14,100 -780 Descending Kansas City Center
03:24PM 40.3472 -88.4419 34° Northeast 233 268 13,200 -900 Descending Chicago Center
03:25PM 40.4003 -88.3961 33° Northeast 230 265 12,100 -1,020 Descending Chicago Center
03:26PM 40.4672 -88.3408 32° Northeast 237 273 11,200 -540 Descending Chicago Center
03:27PM 40.5158 -88.2942 36° Northeast 223 257 11,000 -120 Descending Chicago Center
03:28PM 40.5650 -88.2528 33° Northeast 213 245 11,000  Level Chicago Center
03:29PM 40.6144 -88.2097 33° Northeast 214 246 11,000  Level Chicago Center
03:31PM 40.7203 -88.1164 34° Northeast 208 239 11,000  Level Chicago Center
03:32PM 40.7694 -88.0719 34° Northeast 215 247 11,000  Level Chicago Center
03:33PM 40.8192 -88.0294 33° Northeast 214 246 11,000 -240 Level Chicago Center
03:34PM 40.8694 -87.9847 34° Northeast 219 252 10,600 -720 Descending Chicago Center
03:35PM 40.9233 -87.9383 33° Northeast 231 266 9,600 -1,320 Descending Chicago Center
03:36PM 40.9864 -87.8808 35° Northeast 231 266 7,900 -1,320 Descending Chicago Center
03:37PM 41.0406 -87.8325 34° Northeast 236 272 6,900 -1,020 Descending Chicago Center
03:38PM 41.0933 -87.7872 33° Northeast 232 267 5,800 -1,080 Descending Chicago Center
03:39PM 41.1428 -87.7419 35° Northeast 226 260 4,700 -840 Descending Chicago Center
03:40PM 41.2078 -87.7208 14° North 214 246 4,100 -360 Descending Chicago Center
03:41PM 41.2592 -87.7086 10° North 200 230 4,000 -60 Descending Chicago Center
03:42PM 41.3106 -87.6953 11° North 194 223 4,000  Level Chicago Center
03:43PM 41.3586 -87.6833 11° North 193 222 4,000  Level Chicago Center
03:45PM 41.4050 -87.6019 29° Northeast  Level Estimated
03:52PM 41.5198 -87.3995 37° Northeast  Level Estimated
03:53PM 41.5198 -87.3995 37° Northeast  Level Estimated
03:54PM 41.5198 -87.3995 37° Northeast  Level Estimated
03:55PM 41.5198 -87.3995 37° Northeast  Level Estimated
03:56PM 41.5198 -87.3995 37° Northeast  Level Estimated
03:57PM 41.5198 -87.3995 37° Northeast  Level Estimated